Hartland Point — ZIQS6 — position and weather

sailwx.info

Track history (hours):
 
Tides and Currents Weather Stations Pressure Air Temp Water Temp Dewpoint Dewpoint Depression Visibility Wind Speed Wind Dir Waves Ship Positions

Hartland Point

Last reported at 2017-Dec-11 16:53 UTC. Time now 2017-Dec-12 12:32 UTC.
Position N 49°50' W 003°28'.

Length 193 m; draft 6 m.

Type: Cargo ship. MMSI: 235505000.

Date/timePositionNaut miles runAvg speedWind from/ knotsBaromVisibWave heightAir tempDewpointWater temp
2017-Dec-11 16:53N 49°50' W 003°28'616.0
2017-Dec-11 16:31N 49°53' W 003°20'815.6
2017-Dec-11 16:01N 49°57' W 003°09'815.2
2017-Dec-11 15:31N 49°60' W 002°59'715.0
2017-Dec-11 15:01N 50°03' W 002°48'714.7
2017-Dec-11 14:31N 50°04' W 002°37'814.3
2017-Dec-11 13:59N 50°06' W 002°25'714.1
2017-Dec-11 13:30N 50°09' W 002°16'714.2
2017-Dec-11 13:00N 50°12' W 002°05'714.3
2017-Dec-11 12:29N 50°15' W 001°55'3815.7
2017-Dec-11 10:05N 50°33' W 001°03'116.9
2017-Dec-11 10:00N 50°33' W 001°01'816.4
2017-Dec-11 09:31N 50°41' W 000°58'510.3
2017-Dec-11 09:01N 50°44' W 001°05'816.4
2017-Dec-11 08:31N 50°47' W 001°17'5 9.6
2017-Dec-11 08:00N 50°51' W 001°20'4 0.1
2017-Dec-09 10:40N 50°54' W 001°25'0 0.0
2017-Dec-09 07:55N 50°54' W 001°25'0 0.0
2017-Dec-08 23:10N 50°54' W 001°25'1 2.6
2017-Dec-08 22:50N 50°53' W 001°24'3 8.0
2017-Dec-08 22:30N 50°51' W 001°21'5 9.7
2017-Dec-08 22:00N 50°47' W 001°19'713.0
2017-Dec-08 21:30N 50°46' W 001°09'714.6
2017-Dec-08 21:01N 50°42' W 000°58'4 7.9
2017-Dec-08 20:31N 50°39' W 000°59'611.5
2017-Dec-08 20:00N 50°34' W 001°04'612.9
2017-Dec-08 19:30N 50°31' W 001°13'2 4.7
2017-Dec-08 18:59N 50°29' W 001°16'4913.8
2017-Dec-08 15:28N 50°33' E 000°01'612.6
2017-Dec-08 15:00N 50°34' E 000°09'612.4
2017-Dec-08 14:30N 50°36' E 000°19'611.9
2017-Dec-08 14:00N 50°37' E 000°28'611.0
2017-Dec-08 13:30N 50°38' E 000°37'611.9
2017-Dec-08 13:00N 50°42' E 000°44'713.6
2017-Dec-08 12:30N 50°46' E 000°52'714.1
2017-Dec-08 11:59N 50°50' E 001°02'816.1
2017-Dec-08 11:30N 50°55' E 001°12'917.5
2017-Dec-08 11:00N 51°01' E 001°22'918.6
2017-Dec-08 10:30N 51°07' E 001°33'918.3
2017-Dec-08 10:00N 51°13' E 001°44'917.6
2017-Dec-08 09:31N 51°20' E 001°51'816.5
2017-Dec-08 09:01N 51°28' E 001°58'815.7
2017-Dec-08 08:30N 51°33' E 002°06'9314.3
2017-Dec-08 01:59N 52°46' E 003°43'815.2
2017-Dec-08 01:28N 52°52' E 003°51'715.5
2017-Dec-08 01:00N 52°57' E 003°58'17112.4
2017-Dec-07 11:15N 55°22' E 006°32'2 8.8
2017-Dec-07 11:00N 55°24' E 006°35'4 7.3
2017-Dec-07 10:28N 55°27' E 006°38'4 7.6
2017-Dec-07 09:57N 55°31' E 006°42'5 8.3
2017-Dec-07 09:23N 55°35' E 006°45'16212.7
2017-Dec-06 20:40N 57°55' E 009°12'  
2017-Dec-03 12:35N 55°25' E 015°30'312.8
2017-Dec-03 12:21N 55°24' E 015°25'412.8
2017-Dec-03 12:00N 55°24' E 015°17'612.8
2017-Dec-03 11:30N 55°23' E 015°06'712.9
2017-Dec-03 11:00N 55°23' E 014°54'612.7
2017-Dec-03 10:30N 55°23' E 014°43'612.6
2017-Dec-03 10:00N 55°20' E 014°34'713.3
2017-Dec-03 09:30N 55°15' E 014°27'713.1
2017-Dec-03 09:00N 55°10' E 014°19'713.1
2017-Dec-03 08:28N 55°10' E 014°06'3414.1
2017-Dec-03 06:01N 55°14' E 013°07'214.1
2017-Dec-03 05:52N 55°14' E 013°03'515.5
2017-Dec-03 05:30N 55°15' E 012°53'714.2
2017-Dec-03 05:00N 55°17' E 012°41'610.9
2017-Dec-03 04:30N 55°22' E 012°38'613.1
2017-Dec-03 04:01N 55°28' E 012°41'612.7
2017-Dec-03 03:31N 55°35' E 012°42'612.5
2017-Dec-03 03:01N 55°41' E 012°41'613.0
2017-Dec-03 02:31N 55°47' E 012°42'612.7
2017-Dec-03 02:00N 55°53' E 012°39'612.6
2017-Dec-03 01:31N 55°60' E 012°37'510.6
2017-Dec-03 01:00N 56°05' E 012°35'612.1
2017-Dec-03 00:31N 56°09' E 012°27'714.0
2017-Dec-03 00:00N 56°12' E 012°16'5812.6
2017-Dec-02 19:24N 57°06' E 011°38'512.7
2017-Dec-02 18:59N 57°11' E 011°35'613.2
2017-Dec-02 18:30N 57°17' E 011°31'713.4
2017-Dec-02 18:01N 57°23' E 011°27'612.8
2017-Dec-02 17:30N 57°29' E 011°21'713.9
2017-Dec-02 17:01N 57°34' E 011°11'714.0
2017-Dec-02 16:30N 57°39' E 011°02'714.1
2017-Dec-02 16:00N 57°43' E 010°52'714.2
2017-Dec-02 15:31N 57°47' E 010°41'815.4
2017-Dec-02 15:00N 57°47' E 010°26'18714.2
2017-Dec-02 01:50N 55°27' E 006°40'516.0
2017-Dec-02 01:29N 55°22' E 006°36'11113.0
2017-Dec-01 16:58N 53°31' E 006°45'  
Track history (hours):
 
Tides and Currents Weather Stations Pressure Air Temp Water Temp Dewpoint Dewpoint Depression Visibility Wind Speed Wind Dir Waves Ship Positions

Hartland Point

Last reported at 2017-Dec-11 16:53 UTC. Time now 2017-Dec-12 12:32 UTC.
Position N 49°50' W 003°28'.

Length 193 m; draft 6 m.

Type: Cargo ship. MMSI: 235505000.

Date/timePositionNaut miles runAvg speedWind from/ knotsBaromVisibWave heightAir tempDewpointWater temp
2017-Dec-11 16:53N 49°50' W 003°28'616.0
2017-Dec-11 16:31N 49°53' W 003°20'815.6
2017-Dec-11 16:01N 49°57' W 003°09'815.2
2017-Dec-11 15:31N 49°60' W 002°59'715.0
2017-Dec-11 15:01N 50°03' W 002°48'714.7
2017-Dec-11 14:31N 50°04' W 002°37'814.3
2017-Dec-11 13:59N 50°06' W 002°25'714.1
2017-Dec-11 13:30N 50°09' W 002°16'714.2
2017-Dec-11 13:00N 50°12' W 002°05'714.3
2017-Dec-11 12:29N 50°15' W 001°55'3815.7
2017-Dec-11 10:05N 50°33' W 001°03'116.9
2017-Dec-11 10:00N 50°33' W 001°01'816.4
2017-Dec-11 09:31N 50°41' W 000°58'510.3
2017-Dec-11 09:01N 50°44' W 001°05'816.4
2017-Dec-11 08:31N 50°47' W 001°17'5 9.6
2017-Dec-11 08:00N 50°51' W 001°20'4 0.1
2017-Dec-09 10:40N 50°54' W 001°25'0 0.0
2017-Dec-09 07:55N 50°54' W 001°25'0 0.0
2017-Dec-08 23:10N 50°54' W 001°25'1 2.6
2017-Dec-08 22:50N 50°53' W 001°24'3 8.0
2017-Dec-08 22:30N 50°51' W 001°21'5 9.7
2017-Dec-08 22:00N 50°47' W 001°19'713.0
2017-Dec-08 21:30N 50°46' W 001°09'714.6
2017-Dec-08 21:01N 50°42' W 000°58'4 7.9
2017-Dec-08 20:31N 50°39' W 000°59'611.5
2017-Dec-08 20:00N 50°34' W 001°04'612.9
2017-Dec-08 19:30N 50°31' W 001°13'2 4.7
2017-Dec-08 18:59N 50°29' W 001°16'4913.8
2017-Dec-08 15:28N 50°33' E 000°01'612.6
2017-Dec-08 15:00N 50°34' E 000°09'612.4
2017-Dec-08 14:30N 50°36' E 000°19'611.9
2017-Dec-08 14:00N 50°37' E 000°28'611.0
2017-Dec-08 13:30N 50°38' E 000°37'611.9
2017-Dec-08 13:00N 50°42' E 000°44'713.6
2017-Dec-08 12:30N 50°46' E 000°52'714.1
2017-Dec-08 11:59N 50°50' E 001°02'816.1
2017-Dec-08 11:30N 50°55' E 001°12'917.5
2017-Dec-08 11:00N 51°01' E 001°22'918.6
2017-Dec-08 10:30N 51°07' E 001°33'918.3
2017-Dec-08 10:00N 51°13' E 001°44'917.6
2017-Dec-08 09:31N 51°20' E 001°51'816.5
2017-Dec-08 09:01N 51°28' E 001°58'815.7
2017-Dec-08 08:30N 51°33' E 002°06'9314.3
2017-Dec-08 01:59N 52°46' E 003°43'815.2
2017-Dec-08 01:28N 52°52' E 003°51'715.5
2017-Dec-08 01:00N 52°57' E 003°58'17112.4
2017-Dec-07 11:15N 55°22' E 006°32'2 8.8
2017-Dec-07 11:00N 55°24' E 006°35'4 7.3
2017-Dec-07 10:28N 55°27' E 006°38'4 7.6
2017-Dec-07 09:57N 55°31' E 006°42'5 8.3
2017-Dec-07 09:23N 55°35' E 006°45'16212.7
2017-Dec-06 20:40N 57°55' E 009°12'  
2017-Dec-03 12:35N 55°25' E 015°30'312.8
2017-Dec-03 12:21N 55°24' E 015°25'412.8
2017-Dec-03 12:00N 55°24' E 015°17'612.8
2017-Dec-03 11:30N 55°23' E 015°06'712.9
2017-Dec-03 11:00N 55°23' E 014°54'612.7
2017-Dec-03 10:30N 55°23' E 014°43'612.6
2017-Dec-03 10:00N 55°20' E 014°34'713.3
2017-Dec-03 09:30N 55°15' E 014°27'713.1
2017-Dec-03 09:00N 55°10' E 014°19'713.1
2017-Dec-03 08:28N 55°10' E 014°06'3414.1
2017-Dec-03 06:01N 55°14' E 013°07'214.1
2017-Dec-03 05:52N 55°14' E 013°03'515.5
2017-Dec-03 05:30N 55°15' E 012°53'714.2
2017-Dec-03 05:00N 55°17' E 012°41'610.9
2017-Dec-03 04:30N 55°22' E 012°38'613.1
2017-Dec-03 04:01N 55°28' E 012°41'612.7
2017-Dec-03 03:31N 55°35' E 012°42'612.5
2017-Dec-03 03:01N 55°41' E 012°41'613.0
2017-Dec-03 02:31N 55°47' E 012°42'612.7
2017-Dec-03 02:00N 55°53' E 012°39'612.6
2017-Dec-03 01:31N 55°60' E 012°37'510.6
2017-Dec-03 01:00N 56°05' E 012°35'612.1
2017-Dec-03 00:31N 56°09' E 012°27'714.0
2017-Dec-03 00:00N 56°12' E 012°16'5812.6
2017-Dec-02 19:24N 57°06' E 011°38'512.7
2017-Dec-02 18:59N 57°11' E 011°35'613.2
2017-Dec-02 18:30N 57°17' E 011°31'713.4
2017-Dec-02 18:01N 57°23' E 011°27'612.8
2017-Dec-02 17:30N 57°29' E 011°21'713.9
2017-Dec-02 17:01N 57°34' E 011°11'714.0
2017-Dec-02 16:30N 57°39' E 011°02'714.1
2017-Dec-02 16:00N 57°43' E 010°52'714.2
2017-Dec-02 15:31N 57°47' E 010°41'815.4
2017-Dec-02 15:00N 57°47' E 010°26'18714.2
2017-Dec-02 01:50N 55°27' E 006°40'516.0
2017-Dec-02 01:29N 55°22' E 006°36'11113.0
2017-Dec-01 16:58N 53°31' E 006°45'  

Dump ship's entire track history